Terminal Aerodrome Forecast
Issued by NWS Cleveland, OH

Home | Current Version | Previous Version | Graphics & Text | Print | Product List | Glossary Off
Versions: 1 2 3 4 5 6 7 8 9 10 11 12 13 14 15 16

023
FTUS41 KCLE 151326 AAA
TAFCAK
TAF AMD
KCAK 151326Z 1513/1612 21015G25KT P6SM SCT025 BKN150
      TEMPO 1513/1515 BKN025
     FM151500 22020G30KT P6SM BKN025
     FM151800 22025G35KT P6SM -SHRA VCTS OVC025CB
      TEMPO 1518/1520 26028G40KT 3SM TSRA BKN015CB
     FM152000 28020G32KT P6SM OVC020
     FM160200 30010KT P6SM BKN025=

USA.gov is the U.S. government's official web portal to all federal, state and local government web resources and services.